createdAt,value
2018-03-07T00:00:50.066Z,101.70
2018-03-07T00:01:50.013Z,99.70
2018-03-07T00:02:49.993Z,96.10
2018-03-07T00:03:49.922Z,98.60
2018-03-07T00:04:49.925Z,103.50
2018-03-07T00:05:49.864Z,94.00
2018-03-07T00:06:49.809Z,101.50
2018-03-07T00:07:49.782Z,103.00
2018-03-07T00:08:49.738Z,106.50
2018-03-07T00:09:49.682Z,103.90
2018-03-07T00:10:49.642Z,104.60
2018-03-07T00:11:49.575Z,106.50
2018-03-07T00:12:49.571Z,109.20
2018-03-07T00:13:49.495Z,112.90
2018-03-07T00:14:49.508Z,107.60
2018-03-07T00:15:49.414Z,110.40
2018-03-07T00:16:49.410Z,96.40
2018-03-07T00:17:49.337Z,89.80
2018-03-07T00:18:49.315Z,102.20
2018-03-07T00:19:49.227Z,109.00
2018-03-07T00:20:49.230Z,106.30
2018-03-07T00:21:49.152Z,100.20
2018-03-07T00:22:49.120Z,111.60
2018-03-07T00:23:49.050Z,110.10
2018-03-07T00:24:49.046Z,113.50
2018-03-07T00:25:48.983Z,115.70
2018-03-07T00:26:48.974Z,114.90
2018-03-07T00:27:48.929Z,119.10
2018-03-07T00:28:48.904Z,122.60
2018-03-07T00:29:48.842Z,134.70
2018-03-07T00:30:48.771Z,132.30
2018-03-07T00:31:48.723Z,111.80
2018-03-07T00:32:48.686Z,114.00
2018-03-07T00:33:48.653Z,109.30
2018-03-07T00:34:48.609Z,114.50
2018-03-07T00:35:48.583Z,110.40
2018-03-07T00:36:48.504Z,111.40
2018-03-07T00:37:48.465Z,115.40
2018-03-07T00:38:48.540Z,112.30
2018-03-07T00:39:48.397Z,121.20
2018-03-07T00:40:48.354Z,126.60
2018-03-07T00:41:48.364Z,126.80
2018-03-07T00:42:48.259Z,116.20
2018-03-07T00:43:48.218Z,113.00
2018-03-07T00:44:48.184Z,111.90
2018-03-07T00:45:48.270Z,114.90
2018-03-07T00:46:48.069Z,109.10
2018-03-07T00:47:48.075Z,112.30
2018-03-07T00:48:47.994Z,109.10
2018-03-07T00:49:47.970Z,113.40
2018-03-07T00:50:47.910Z,128.50
2018-03-07T00:51:47.896Z,129.60
2018-03-07T00:52:47.831Z,140.50
2018-03-07T00:53:47.782Z,138.70
2018-03-07T00:54:47.754Z,134.20
2018-03-07T00:55:47.722Z,131.70
2018-03-07T00:56:47.670Z,126.60
2018-03-07T00:57:47.600Z,143.30
2018-03-07T00:58:47.614Z,122.70
2018-03-07T00:59:47.565Z,123.60
2018-03-07T01:00:47.471Z,122.30
2018-03-07T01:01:47.453Z,118.00
2018-03-07T01:02:47.385Z,123.60
2018-03-07T01:03:47.347Z,128.30
2018-03-07T01:04:47.313Z,124.90
2018-03-07T01:05:47.298Z,132.80
2018-03-07T01:06:47.249Z,121.50
2018-03-07T01:07:47.173Z,121.50
2018-03-07T01:08:47.156Z,127.30
2018-03-07T01:09:47.098Z,121.10
2018-03-07T01:10:47.066Z,127.20
2018-03-07T01:11:47.028Z,118.70
2018-03-07T01:12:46.998Z,115.80
2018-03-07T01:13:46.993Z,124.20
2018-03-07T01:14:46.887Z,131.10
2018-03-07T01:15:46.837Z,126.80
2018-03-07T01:16:46.792Z,124.10
2018-03-07T01:17:46.807Z,122.00
2018-03-07T01:18:46.700Z,125.10
2018-03-07T01:19:46.667Z,120.00
2018-03-07T01:20:47.295Z,128.40
2018-03-07T01:21:46.566Z,123.90
2018-03-07T01:22:46.533Z,123.30
2018-03-07T01:23:46.480Z,120.10
2018-03-07T01:24:46.495Z,130.30
2018-03-07T01:25:46.405Z,134.40
2018-03-07T01:26:46.381Z,130.60
2018-03-07T01:27:46.321Z,126.00
2018-03-07T01:28:46.263Z,122.70
2018-03-07T01:29:46.328Z,121.90
2018-03-07T01:30:46.200Z,121.90
2018-03-07T01:31:46.186Z,127.60
2018-03-07T01:32:46.096Z,122.40
2018-03-07T01:33:46.059Z,127.70
2018-03-07T01:34:46.021Z,128.30
2018-03-07T01:35:45.968Z,113.10
2018-03-07T01:36:45.940Z,118.50
2018-03-07T01:37:45.902Z,131.80
2018-03-07T01:38:45.930Z,141.90
2018-03-07T01:39:45.900Z,136.40
2018-03-07T01:40:45.760Z,123.40
2018-03-07T01:41:45.730Z,130.40
2018-03-07T01:42:45.756Z,132.00
2018-03-07T01:43:46.303Z,143.60
2018-03-07T01:44:45.577Z,152.00
2018-03-07T01:45:45.599Z,136.70
2018-03-07T01:46:45.503Z,142.70
2018-03-07T01:47:45.505Z,158.70
2018-03-07T01:48:45.437Z,130.00
2018-03-07T01:49:46.309Z,154.30
2018-03-07T01:50:45.314Z,164.20
2018-03-07T01:51:45.310Z,128.30
2018-03-07T01:52:45.329Z,131.30
2018-03-07T01:53:45.261Z,135.40
2018-03-07T01:54:45.203Z,137.40
2018-03-07T01:55:45.114Z,149.30
2018-03-07T01:56:45.054Z,134.80
2018-03-07T01:57:45.017Z,137.70
2018-03-07T01:58:45.018Z,122.00
2018-03-07T01:59:44.940Z,126.20
2018-03-07T02:00:44.904Z,119.00
2018-03-07T02:01:44.867Z,129.50
2018-03-07T02:02:45.808Z,129.20
2018-03-07T02:03:44.781Z,133.70
2018-03-07T02:04:44.715Z,120.20
2018-03-07T02:05:44.725Z,127.00
2018-03-07T02:06:44.629Z,127.60
2018-03-07T02:07:44.619Z,126.70
2018-03-07T02:08:44.547Z,130.50
2018-03-07T02:09:44.534Z,115.20
2018-03-07T02:10:44.456Z,115.90
2018-03-07T02:11:44.427Z,122.60
2018-03-07T02:12:44.366Z,127.10
2018-03-07T02:13:44.476Z,119.30
2018-03-07T02:14:44.300Z,122.10
2018-03-07T02:15:44.266Z,119.70
2018-03-07T02:16:44.189Z,127.40
2018-03-07T02:17:44.183Z,119.50
2018-03-07T02:18:44.097Z,114.80
2018-03-07T02:19:44.052Z,124.30
2018-03-07T02:20:44.047Z,125.60
2018-03-07T02:21:44.022Z,113.70
2018-03-07T02:22:43.950Z,106.10
2018-03-07T02:23:43.947Z,119.70
2018-03-07T02:24:43.892Z,123.30
2018-03-07T02:25:43.847Z,133.60
2018-03-07T02:26:43.800Z,115.70
2018-03-07T02:27:43.749Z,112.00
2018-03-07T02:28:43.684Z,118.20
2018-03-07T02:29:43.722Z,126.40
2018-03-07T02:30:43.676Z,125.00
2018-03-07T02:31:43.587Z,133.50
2018-03-07T02:32:43.541Z,124.40
2018-03-07T02:33:43.471Z,123.60
2018-03-07T02:34:43.439Z,118.80
2018-03-07T02:35:43.374Z,139.90
2018-03-07T02:36:43.324Z,133.50
2018-03-07T02:37:43.297Z,133.60
2018-03-07T02:38:43.257Z,123.30
2018-03-07T02:39:43.230Z,123.80
2018-03-07T02:40:43.229Z,132.40
2018-03-07T02:41:43.122Z,123.80
2018-03-07T02:42:43.062Z,124.50
2018-03-07T02:43:43.055Z,128.40
2018-03-07T02:44:43.016Z,128.80
2018-03-07T02:45:42.951Z,118.60
2018-03-07T02:46:42.880Z,125.80
2018-03-07T02:47:42.893Z,128.80
2018-03-07T02:48:42.801Z,121.00
2018-03-07T02:49:42.771Z,133.30
2018-03-07T02:50:42.719Z,137.20
2018-03-07T02:51:42.691Z,140.10
2018-03-07T02:52:42.630Z,138.10
2018-03-07T02:53:42.613Z,140.20
2018-03-07T02:54:42.554Z,146.50
2018-03-07T02:55:42.522Z,148.50
2018-03-07T02:56:42.478Z,136.20
2018-03-07T02:57:42.412Z,125.50
2018-03-07T02:58:42.359Z,126.80
2018-03-07T02:59:42.363Z,128.90
2018-03-07T03:00:42.292Z,132.80
2018-03-07T03:01:42.248Z,137.30
2018-03-07T03:02:42.179Z,130.50
2018-03-07T03:03:42.148Z,123.10
2018-03-07T03:04:42.258Z,128.20
2018-03-07T03:05:42.048Z,130.20
2018-03-07T03:06:42.008Z,130.50
2018-03-07T03:07:41.997Z,126.90
2018-03-07T03:08:41.940Z,138.30
2018-03-07T03:09:41.896Z,133.70
2018-03-07T03:10:41.856Z,135.50
2018-03-07T03:11:41.813Z,126.30
2018-03-07T03:12:41.778Z,141.10
2018-03-07T03:13:41.746Z,125.50
2018-03-07T03:14:41.695Z,132.30
2018-03-07T03:15:42.320Z,136.50
2018-03-07T03:16:41.585Z,141.20
2018-03-07T03:17:41.544Z,147.50
2018-03-07T03:18:41.494Z,136.30
2018-03-07T03:19:41.448Z,141.40
2018-03-07T03:20:41.442Z,122.70
2018-03-07T03:21:41.351Z,116.50
2018-03-07T03:22:41.354Z,135.40
2018-03-07T03:23:41.260Z,134.70
2018-03-07T03:24:41.255Z,131.90
2018-03-07T03:25:41.188Z,128.80
2018-03-07T03:26:41.269Z,137.10
2018-03-07T03:27:41.087Z,128.60
2018-03-07T03:28:41.103Z,130.00
2018-03-07T03:29:41.035Z,134.70
2018-03-07T03:30:40.959Z,134.60
2018-03-07T03:31:40.923Z,146.80
2018-03-07T03:32:40.902Z,139.80
2018-03-07T03:33:40.843Z,134.50
2018-03-07T03:34:40.786Z,142.80
2018-03-07T03:35:40.778Z,131.90
2018-03-07T03:36:40.697Z,141.00
2018-03-07T03:37:40.669Z,146.70
2018-03-07T03:38:40.607Z,143.70
2018-03-07T03:39:40.557Z,143.50
2018-03-07T03:40:40.585Z,140.30
2018-03-07T03:41:40.533Z,147.80
2018-03-07T03:42:40.428Z,143.60
2018-03-07T03:43:40.369Z,141.20
2018-03-07T03:44:40.329Z,139.00
2018-03-07T03:45:40.288Z,131.10
2018-03-07T03:46:40.296Z,132.30
2018-03-07T03:47:40.209Z,122.10
2018-03-07T03:48:40.154Z,132.50
2018-03-07T03:49:40.126Z,139.50
2018-03-07T03:50:40.091Z,151.90
2018-03-07T03:51:40.045Z,229.60
2018-03-07T03:52:39.979Z,171.30
2018-03-07T03:53:39.929Z,207.80
2018-03-07T03:54:39.897Z,194.30
2018-03-07T03:55:39.883Z,234.60
2018-03-07T03:56:39.867Z,302.20
2018-03-07T03:57:39.752Z,211.40
2018-03-07T03:58:39.753Z,190.70
2018-03-07T03:59:39.666Z,183.20
2018-03-07T04:00:39.652Z,159.60
2018-03-07T04:01:39.576Z,147.50
2018-03-07T04:02:39.531Z,145.30
2018-03-07T04:03:39.539Z,149.30
2018-03-07T04:04:39.445Z,146.20
2018-03-07T04:05:39.411Z,129.30
2018-03-07T04:06:39.401Z,121.10
2018-03-07T04:07:39.315Z,157.90
2018-03-07T04:08:39.311Z,146.50
2018-03-07T04:09:39.214Z,140.90
2018-03-07T04:10:39.196Z,132.00
2018-03-07T04:11:40.920Z,138.00
2018-03-07T04:12:39.107Z,131.40
2018-03-07T04:13:39.047Z,125.00
2018-03-07T04:14:38.990Z,126.40
2018-03-07T04:15:38.957Z,126.50
2018-03-07T04:16:38.901Z,131.00
2018-03-07T04:17:38.864Z,140.30
2018-03-07T04:18:38.808Z,138.70
2018-03-07T04:19:38.770Z,127.40
2018-03-07T04:20:38.749Z,139.60
2018-03-07T04:21:38.723Z,142.30
2018-03-07T04:22:38.651Z,141.30
2018-03-07T04:23:38.595Z,146.60
2018-03-07T04:24:38.567Z,144.40
2018-03-07T04:25:38.531Z,146.50
2018-03-07T04:26:38.462Z,149.90
2018-03-07T04:27:38.406Z,161.10
2018-03-07T04:28:38.378Z,154.70
2018-03-07T04:29:38.350Z,161.70
2018-03-07T04:30:38.312Z,157.90
2018-03-07T04:31:38.235Z,152.80
2018-03-07T04:32:38.258Z,156.70
2018-03-07T04:33:38.130Z,156.70
2018-03-07T04:34:38.123Z,154.90
2018-03-07T04:35:38.072Z,158.90
2018-03-07T04:36:38.093Z,157.70
2018-03-07T04:37:37.969Z,183.80
2018-03-07T04:38:37.933Z,166.80
2018-03-07T04:39:37.901Z,162.90
2018-03-07T04:40:37.823Z,156.50
2018-03-07T04:41:37.775Z,149.90
2018-03-07T04:42:37.730Z,148.40
2018-03-07T04:43:37.677Z,152.80
2018-03-07T04:44:37.684Z,155.80
2018-03-07T04:45:37.614Z,149.60
2018-03-07T04:46:37.555Z,146.60
2018-03-07T04:47:37.517Z,147.30
2018-03-07T04:48:37.471Z,155.10
2018-03-07T04:49:37.450Z,154.10
2018-03-07T04:50:37.400Z,161.10
2018-03-07T04:51:37.312Z,167.40
2018-03-07T04:52:37.274Z,162.20
2018-03-07T04:53:37.244Z,146.70
2018-03-07T04:54:37.206Z,150.70
2018-03-07T04:55:37.157Z,138.00
2018-03-07T04:56:37.104Z,157.40
2018-03-07T04:57:37.047Z,153.80
2018-03-07T04:58:37.019Z,147.80
2018-03-07T04:59:36.956Z,149.30
2018-03-07T05:00:36.922Z,147.40
2018-03-07T05:01:36.909Z,147.80
2018-03-07T05:02:36.904Z,152.80
2018-03-07T05:03:36.785Z,154.30
2018-03-07T05:04:36.728Z,153.00
2018-03-07T05:05:36.708Z,140.90
2018-03-07T05:06:36.657Z,146.30
2018-03-07T05:07:36.621Z,145.30
2018-03-07T05:08:36.573Z,156.20
2018-03-07T05:09:36.542Z,160.50
2018-03-07T05:10:36.506Z,166.60
2018-03-07T05:11:36.414Z,166.10
2018-03-07T05:12:36.383Z,171.70
2018-03-07T05:13:36.330Z,161.30
2018-03-07T05:14:36.281Z,165.40
2018-03-07T05:15:36.240Z,156.80
2018-03-07T05:16:36.173Z,163.60
2018-03-07T05:17:36.160Z,159.20
2018-03-07T05:18:36.116Z,164.20
2018-03-07T05:19:36.054Z,169.40
2018-03-07T05:20:36.007Z,151.90
2018-03-07T05:21:36.020Z,152.80
2018-03-07T05:22:35.911Z,154.20
2018-03-07T05:23:35.921Z,167.00
2018-03-07T05:24:35.810Z,156.40
2018-03-07T05:25:35.776Z,168.70
2018-03-07T05:26:35.732Z,160.30
2018-03-07T05:27:35.705Z,169.80
2018-03-07T05:28:35.633Z,166.30
2018-03-07T05:29:35.613Z,166.20
2018-03-07T05:30:35.562Z,175.40
2018-03-07T05:31:35.505Z,159.20
2018-03-07T05:32:35.443Z,167.70
2018-03-07T05:33:35.441Z,172.30
2018-03-07T05:34:35.370Z,156.70
2018-03-07T05:35:35.351Z,152.00
2018-03-07T05:36:35.308Z,150.50
2018-03-07T05:37:35.241Z,145.30
2018-03-07T05:38:35.208Z,147.60
2018-03-07T05:39:35.145Z,147.50
2018-03-07T05:40:35.137Z,146.40
2018-03-07T05:41:35.033Z,149.60
2018-03-07T05:42:35.012Z,143.30
2018-03-07T05:43:34.956Z,141.70
2018-03-07T05:44:34.917Z,142.50
2018-03-07T05:45:34.864Z,139.80
2018-03-07T05:46:34.838Z,146.40
2018-03-07T05:47:34.792Z,145.40
2018-03-07T05:48:34.744Z,144.60
2018-03-07T05:49:34.715Z,145.60
2018-03-07T05:50:34.634Z,150.90
2018-03-07T05:51:34.591Z,149.20
2018-03-07T05:52:34.558Z,145.20
2018-03-07T05:53:34.497Z,137.10
2018-03-07T05:54:34.480Z,138.90
2018-03-07T05:55:34.409Z,133.70
2018-03-07T05:56:34.374Z,137.20
2018-03-07T05:57:34.335Z,137.50
2018-03-07T05:58:34.326Z,132.80
2018-03-07T05:59:34.280Z,129.70
2018-03-07T06:00:34.212Z,134.20
2018-03-07T06:01:34.213Z,142.80
2018-03-07T06:02:34.091Z,134.80
2018-03-07T06:03:34.040Z,133.60
2018-03-07T06:04:34.037Z,135.60
2018-03-07T06:05:33.959Z,144.70
2018-03-07T06:06:33.941Z,140.60
2018-03-07T06:07:33.863Z,132.90
2018-03-07T06:08:33.861Z,137.30
2018-03-07T06:09:33.772Z,138.00
2018-03-07T06:10:33.738Z,136.30
2018-03-07T06:11:33.698Z,134.50
2018-03-07T06:12:33.646Z,130.80
2018-03-07T06:13:33.594Z,133.60
2018-03-07T06:14:33.570Z,135.20
2018-03-07T06:15:33.513Z,126.60
2018-03-07T06:16:33.480Z,128.90
2018-03-07T06:17:33.438Z,125.40
2018-03-07T06:18:33.376Z,120.60
2018-03-07T06:19:33.325Z,126.60
2018-03-07T06:20:33.298Z,127.70
2018-03-07T06:21:33.244Z,124.10
2018-03-07T06:22:33.184Z,117.90
2018-03-07T06:23:33.155Z,121.50
2018-03-07T06:24:33.115Z,117.30
2018-03-07T06:25:33.067Z,113.70
2018-03-07T06:26:33.018Z,111.80
2018-03-07T06:27:32.980Z,120.30
2018-03-07T06:28:32.943Z,120.70
2018-03-07T06:29:32.901Z,120.30
2018-03-07T06:30:32.842Z,118.10
2018-03-07T06:31:32.779Z,118.00
2018-03-07T06:32:32.763Z,119.00
2018-03-07T06:33:32.721Z,108.10
2018-03-07T06:34:32.652Z,110.80
2018-03-07T06:35:32.599Z,109.30
2018-03-07T06:36:32.690Z,109.80
2018-03-07T06:37:32.540Z,113.40
2018-03-07T06:38:32.487Z,112.80
2018-03-07T06:39:32.421Z,110.70
2018-03-07T06:40:32.384Z,116.40
2018-03-07T06:41:32.346Z,110.40
2018-03-07T06:42:32.333Z,108.60
2018-03-07T06:43:32.263Z,104.70
2018-03-07T06:44:32.230Z,104.30
2018-03-07T06:45:32.190Z,106.90
2018-03-07T06:46:32.109Z,101.70
2018-03-07T06:47:32.156Z,103.00
2018-03-07T06:48:32.025Z,109.90
2018-03-07T06:49:31.986Z,124.00
2018-03-07T06:50:31.932Z,114.80
2018-03-07T06:51:31.914Z,108.80
2018-03-07T06:52:31.866Z,108.70
2018-03-07T06:53:31.810Z,105.60
2018-03-07T06:54:31.750Z,105.10
2018-03-07T06:55:31.715Z,105.70
2018-03-07T06:56:31.678Z,102.50
2018-03-07T06:57:31.625Z,103.90
2018-03-07T06:58:31.588Z,100.70
2018-03-07T06:59:31.564Z,106.10
2018-03-07T07:00:31.498Z,110.00
2018-03-07T07:01:31.450Z,107.50
2018-03-07T07:02:31.415Z,105.30
2018-03-07T07:03:31.383Z,107.70
2018-03-07T07:04:31.329Z,118.90
2018-03-07T07:05:31.289Z,114.70
2018-03-07T07:06:31.238Z,108.20
2018-03-07T07:07:31.197Z,108.90
2018-03-07T07:08:31.152Z,108.10
2018-03-07T07:09:31.208Z,107.50
2018-03-07T07:10:31.171Z,101.30
2018-03-07T07:11:31.104Z,107.20
2018-03-07T07:12:31.008Z,105.10
2018-03-07T07:13:30.952Z,103.50
2018-03-07T07:14:30.902Z,101.40
2018-03-07T07:15:30.862Z,102.70
2018-03-07T07:16:30.814Z,102.00
2018-03-07T07:17:30.769Z,105.00
2018-03-07T07:18:30.715Z,100.70
2018-03-07T07:19:30.691Z,98.90
2018-03-07T07:20:30.633Z,101.30
2018-03-07T07:21:30.598Z,99.00
2018-03-07T07:22:30.545Z,96.90
2018-03-07T07:23:30.499Z,94.00
2018-03-07T07:24:30.475Z,95.10
2018-03-07T07:25:30.435Z,94.90
2018-03-07T07:26:30.376Z,99.50
2018-03-07T07:27:30.335Z,92.70
2018-03-07T07:28:30.321Z,95.00
2018-03-07T07:29:30.259Z,91.10
2018-03-07T07:30:30.221Z,93.50
2018-03-07T07:31:30.160Z,92.20
2018-03-07T07:32:30.136Z,89.40
2018-03-07T07:33:30.081Z,91.40
2018-03-07T07:34:30.038Z,91.40
2018-03-07T07:35:29.992Z,88.70
2018-03-07T07:36:29.951Z,92.80
2018-03-07T07:37:29.939Z,93.00
2018-03-07T07:38:29.878Z,88.50
2018-03-07T07:39:29.826Z,89.90
2018-03-07T07:40:29.800Z,96.00
2018-03-07T07:41:29.751Z,89.60
2018-03-07T07:42:29.689Z,87.60
2018-03-07T07:43:29.669Z,92.50
2018-03-07T07:44:29.626Z,87.90
2018-03-07T07:45:29.587Z,89.60
2018-03-07T07:46:29.538Z,88.20
2018-03-07T07:47:29.477Z,80.40
2018-03-07T07:48:29.444Z,85.70
2018-03-07T07:49:29.401Z,86.10
2018-03-07T07:50:29.430Z,80.40
2018-03-07T07:51:29.348Z,85.90
2018-03-07T07:52:29.285Z,83.80
2018-03-07T07:53:29.238Z,83.50
2018-03-07T07:54:29.228Z,84.30
2018-03-07T07:55:29.145Z,85.90
2018-03-07T07:56:29.103Z,82.80
2018-03-07T07:57:29.107Z,85.20
2018-03-07T07:58:29.059Z,82.60
2018-03-07T07:59:29.012Z,88.50
2018-03-07T08:00:28.957Z,84.90
2018-03-07T08:01:28.910Z,85.10
2018-03-07T08:02:28.869Z,80.00
2018-03-07T08:03:28.866Z,84.50
2018-03-07T08:04:28.788Z,86.20
2018-03-07T08:05:28.758Z,85.70
2018-03-07T08:06:28.703Z,81.60
2018-03-07T08:07:28.668Z,82.90
2018-03-07T08:08:28.657Z,84.20
2018-03-07T08:09:28.618Z,81.00
2018-03-07T08:10:28.563Z,80.00
2018-03-07T08:11:28.498Z,84.40
2018-03-07T08:12:28.462Z,80.80
2018-03-07T08:13:28.423Z,82.50
2018-03-07T08:14:28.374Z,82.70
2018-03-07T08:15:28.344Z,82.00
2018-03-07T08:16:28.326Z,83.80
2018-03-07T08:17:28.288Z,79.30
2018-03-07T08:18:28.227Z,84.30
2018-03-07T08:19:28.179Z,84.50
2018-03-07T08:20:28.128Z,81.70
2018-03-07T08:21:28.102Z,83.10
2018-03-07T08:22:28.189Z,83.70
2018-03-07T08:23:28.042Z,83.60
2018-03-07T08:24:28.012Z,82.60
2018-03-07T08:25:27.949Z,81.20
2018-03-07T08:26:27.906Z,82.70
2018-03-07T08:27:27.870Z,82.80
2018-03-07T08:28:27.814Z,84.90
2018-03-07T08:29:27.792Z,84.80
2018-03-07T08:30:27.733Z,83.50
2018-03-07T08:31:27.689Z,85.50
2018-03-07T08:32:27.690Z,87.60
2018-03-07T08:33:27.657Z,83.60
2018-03-07T08:34:27.597Z,84.80
2018-03-07T08:35:27.567Z,110.80
2018-03-07T08:36:27.504Z,185.30
2018-03-07T08:37:27.482Z,186.40
2018-03-07T08:38:27.419Z,118.00
2018-03-07T08:39:27.390Z,122.00
2018-03-07T08:40:27.343Z,104.40
2018-03-07T08:41:27.303Z,116.80
2018-03-07T08:42:27.261Z,128.20
2018-03-07T08:43:27.219Z,118.50
2018-03-07T08:44:27.234Z,146.50
2018-03-07T08:45:27.163Z,124.20
2018-03-07T08:46:27.129Z,143.10
2018-03-07T08:47:27.073Z,154.60
2018-03-07T08:48:27.044Z,134.00
2018-03-07T08:49:27.004Z,118.40
2018-03-07T08:50:26.980Z,110.10
2018-03-07T08:51:26.957Z,104.00
2018-03-07T08:52:26.900Z,96.40
2018-03-07T08:53:26.920Z,88.70
2018-03-07T08:54:26.820Z,87.30
2018-03-07T08:55:26.779Z,84.80
2018-03-07T08:56:26.763Z,79.30
2018-03-07T08:57:26.739Z,78.60
2018-03-07T08:58:26.677Z,80.80
2018-03-07T08:59:27.371Z,78.00
2018-03-07T09:00:26.606Z,77.40
2018-03-07T09:01:26.594Z,79.10
2018-03-07T09:02:26.523Z,81.70
2018-03-07T09:03:26.507Z,76.00
2018-03-07T09:04:26.465Z,75.50
2018-03-07T09:05:26.426Z,79.10
2018-03-07T09:06:26.411Z,77.50
2018-03-07T09:07:26.377Z,73.40
2018-03-07T09:08:26.319Z,73.70
2018-03-07T09:09:26.300Z,74.20
2018-03-07T09:10:26.323Z,75.40
2018-03-07T09:11:26.206Z,73.10
2018-03-07T09:12:26.251Z,71.80
2018-03-07T09:13:26.120Z,69.70
2018-03-07T09:14:26.106Z,73.20
2018-03-07T09:15:26.046Z,70.50
2018-03-07T09:16:26.033Z,74.10
2018-03-07T09:17:26.007Z,73.50
2018-03-07T09:18:25.947Z,74.70
2018-03-07T09:19:25.916Z,66.90
2018-03-07T09:20:25.869Z,65.30
2018-03-07T09:21:25.824Z,71.90
2018-03-07T09:22:25.812Z,65.50
2018-03-07T09:23:25.757Z,64.70
2018-03-07T09:24:25.734Z,65.70
2018-03-07T09:25:25.695Z,59.70
2018-03-07T09:26:25.655Z,65.40
2018-03-07T09:27:25.622Z,60.70
2018-03-07T09:28:25.601Z,60.60
2018-03-07T09:29:25.613Z,63.10
2018-03-07T09:30:25.605Z,66.20
2018-03-07T09:31:25.479Z,61.20
2018-03-07T09:32:25.454Z,63.80
2018-03-07T09:33:25.390Z,61.50
2018-03-07T09:34:25.366Z,65.30
2018-03-07T09:35:25.340Z,62.70
2018-03-07T09:36:25.303Z,61.10
2018-03-07T09:37:25.240Z,59.60
2018-03-07T09:38:25.220Z,62.50
2018-03-07T09:39:25.227Z,66.10
2018-03-07T09:40:25.134Z,62.80
2018-03-07T09:41:25.110Z,64.30
2018-03-07T09:42:25.048Z,64.10
2018-03-07T09:43:25.053Z,64.30
2018-03-07T09:44:24.992Z,62.00
2018-03-07T09:45:24.950Z,62.50
2018-03-07T09:46:24.917Z,60.00
2018-03-07T09:47:24.859Z,59.40
2018-03-07T09:48:24.823Z,63.00
2018-03-07T09:49:24.783Z,63.60
2018-03-07T09:50:24.758Z,64.40
2018-03-07T09:51:24.719Z,61.40
2018-03-07T09:52:24.682Z,64.60
2018-03-07T09:53:24.655Z,62.70
2018-03-07T09:54:24.621Z,66.00
2018-03-07T09:55:24.623Z,70.10
2018-03-07T09:56:24.598Z,67.40
2018-03-07T09:57:24.484Z,63.20
2018-03-07T09:58:24.476Z,69.30
2018-03-07T09:59:24.408Z,62.40
2018-03-07T10:00:24.412Z,67.00
2018-03-07T10:01:24.348Z,64.00
2018-03-07T10:02:24.338Z,65.00
2018-03-07T10:03:24.315Z,61.70
2018-03-07T10:04:24.228Z,63.20
2018-03-07T10:05:24.201Z,66.40
2018-03-07T10:06:24.160Z,70.30
2018-03-07T10:07:24.120Z,71.90
2018-03-07T10:08:24.072Z,74.00
2018-03-07T10:09:24.029Z,61.70
2018-03-07T10:10:24.005Z,69.60
2018-03-07T10:11:23.966Z,61.70
2018-03-07T10:12:23.955Z,63.90
2018-03-07T10:13:23.888Z,69.30
2018-03-07T10:14:23.869Z,68.70
2018-03-07T10:15:23.796Z,59.70
2018-03-07T10:16:23.782Z,65.20
2018-03-07T10:17:23.798Z,67.60
2018-03-07T10:18:23.720Z,72.00
2018-03-07T10:19:23.640Z,64.20
2018-03-07T10:20:23.616Z,69.20
2018-03-07T10:21:23.570Z,66.30
2018-03-07T10:22:23.533Z,63.90
2018-03-07T10:23:23.564Z,67.30
2018-03-07T10:24:23.459Z,64.70
2018-03-07T10:25:23.431Z,66.50
2018-03-07T10:26:23.366Z,65.10
2018-03-07T10:27:23.373Z,67.40
2018-03-07T10:28:23.300Z,63.60
2018-03-07T10:29:23.259Z,60.50
2018-03-07T10:30:23.232Z,64.10
2018-03-07T10:31:23.181Z,68.10
2018-03-07T10:32:23.149Z,59.30
2018-03-07T10:33:23.149Z,70.60
2018-03-07T10:34:23.081Z,69.00
2018-03-07T10:35:23.028Z,59.70
2018-03-07T10:36:23.003Z,65.20
2018-03-07T10:37:22.954Z,61.10
2018-03-07T10:38:22.925Z,58.20
2018-03-07T10:39:22.870Z,56.20
2018-03-07T10:40:22.838Z,55.20
2018-03-07T10:41:22.798Z,50.90
2018-03-07T10:42:22.752Z,58.40
2018-03-07T10:43:22.720Z,55.40
2018-03-07T10:44:22.718Z,57.70
2018-03-07T10:45:22.697Z,55.20
2018-03-07T10:46:22.620Z,53.70
2018-03-07T10:47:22.564Z,54.20
2018-03-07T10:48:22.534Z,51.80
2018-03-07T10:49:22.489Z,50.30
2018-03-07T10:50:22.503Z,44.10
2018-03-07T10:51:22.424Z,50.70
2018-03-07T10:52:22.407Z,45.30
2018-03-07T10:53:22.339Z,36.80
2018-03-07T10:54:22.294Z,33.70
2018-03-07T10:55:22.297Z,35.30
2018-03-07T10:56:22.253Z,32.00
2018-03-07T10:57:22.180Z,37.30
2018-03-07T10:58:22.155Z,39.30
2018-03-07T10:59:22.128Z,41.00
2018-03-07T11:00:22.085Z,38.30
2018-03-07T11:01:22.075Z,36.20
2018-03-07T11:02:22.004Z,39.50
2018-03-07T11:03:21.972Z,29.50
2018-03-07T11:04:21.926Z,28.50
2018-03-07T11:05:21.918Z,29.90
2018-03-07T11:06:21.872Z,28.50
2018-03-07T11:07:21.851Z,30.50
2018-03-07T11:08:21.850Z,28.20
2018-03-07T11:09:21.810Z,31.40
2018-03-07T11:10:21.735Z,29.90
2018-03-07T11:11:21.712Z,26.70
2018-03-07T11:12:21.704Z,31.20
2018-03-07T11:13:21.663Z,27.00
2018-03-07T11:14:21.627Z,21.50
2018-03-07T11:15:21.587Z,23.60
2018-03-07T11:16:21.565Z,25.30
2018-03-07T11:17:21.538Z,25.80
2018-03-07T11:18:21.526Z,22.90
2018-03-07T11:19:21.473Z,25.00
2018-03-07T11:20:21.453Z,25.90
2018-03-07T11:21:21.434Z,21.60
2018-03-07T11:22:21.401Z,25.60
2018-03-07T11:23:21.415Z,23.40
2018-03-07T11:24:21.323Z,19.30
2018-03-07T11:25:21.325Z,18.80
2018-03-07T11:26:21.299Z,17.60
2018-03-07T11:27:21.255Z,17.80
2018-03-07T11:28:21.240Z,18.80
2018-03-07T11:29:21.209Z,21.60
2018-03-07T11:30:21.175Z,18.70
2018-03-07T11:31:21.141Z,20.70
2018-03-07T11:32:21.116Z,16.80
2018-03-07T11:33:21.118Z,17.60
2018-03-07T11:34:21.104Z,17.40
2018-03-07T11:35:21.031Z,17.40
2018-03-07T11:36:21.007Z,17.70
2018-03-07T11:37:20.990Z,18.60
2018-03-07T11:38:20.954Z,17.90
2018-03-07T11:39:20.929Z,18.80
2018-03-07T11:40:20.906Z,18.50
2018-03-07T11:41:20.893Z,17.70
2018-03-07T11:42:20.854Z,19.10
2018-03-07T11:43:20.832Z,18.80
2018-03-07T11:44:20.826Z,19.20
2018-03-07T11:45:20.774Z,19.20
2018-03-07T11:46:20.743Z,20.00
2018-03-07T11:47:20.727Z,20.10
2018-03-07T11:48:20.698Z,19.10
2018-03-07T11:49:20.666Z,19.50
2018-03-07T11:50:20.621Z,22.00
2018-03-07T11:51:20.601Z,21.00
2018-03-07T11:52:20.571Z,20.90
2018-03-07T11:53:20.558Z,21.60
2018-03-07T11:54:20.509Z,20.80
2018-03-07T11:55:20.503Z,21.20
2018-03-07T11:56:20.474Z,19.90
2018-03-07T11:57:20.478Z,20.20
2018-03-07T11:58:20.375Z,21.40
2018-03-07T11:59:20.370Z,19.90
2018-03-07T12:00:20.329Z,21.00
2018-03-07T12:01:20.307Z,21.50
2018-03-07T12:02:20.269Z,21.40
2018-03-07T12:03:20.243Z,20.50
2018-03-07T12:04:20.198Z,17.90
2018-03-07T12:05:20.192Z,20.60
2018-03-07T12:06:20.151Z,21.40
2018-03-07T12:07:20.130Z,21.20
2018-03-07T12:08:20.107Z,22.00
2018-03-07T12:09:20.078Z,20.70
2018-03-07T12:10:20.039Z,22.00
2018-03-07T12:11:20.034Z,22.40
2018-03-07T12:12:20.014Z,21.80
2018-03-07T12:13:19.980Z,21.10
2018-03-07T12:14:19.999Z,21.90
2018-03-07T12:15:19.952Z,17.80
2018-03-07T12:16:19.889Z,22.10
2018-03-07T12:17:19.853Z,22.40
2018-03-07T12:18:19.832Z,22.50
2018-03-07T12:19:19.817Z,22.70
2018-03-07T12:20:19.773Z,20.60
2018-03-07T12:21:19.790Z,22.40
2018-03-07T12:22:19.721Z,22.80
2018-03-07T12:23:19.696Z,21.10
2018-03-07T12:24:19.663Z,21.40
2018-03-07T12:25:19.640Z,23.50
2018-03-07T12:26:19.635Z,23.90
2018-03-07T12:27:19.600Z,23.60
2018-03-07T12:28:19.580Z,24.80
2018-03-07T12:29:19.570Z,23.60
2018-03-07T12:30:19.559Z,24.00
2018-03-07T12:31:19.508Z,24.70
2018-03-07T12:32:19.492Z,23.50
2018-03-07T12:33:19.457Z,24.70
2018-03-07T12:34:19.419Z,25.20
2018-03-07T12:35:19.390Z,25.30
2018-03-07T12:36:19.370Z,21.50
2018-03-07T12:37:19.341Z,24.30
2018-03-07T12:38:19.322Z,20.70